Jianyang, China
Current Conditions -  °F | °C
As of 6:00 AM on Saturday 29 Nov 2014 (Local Time) from ZUUU Reporting Station
Scattered Clouds Scattered Clouds  
Wind Chill: 54°   Ceiling: Unl
Heat Index: 54°   Visibility: 4mi
Dew Point: 46°   Wind: 0mph
Humidity: 77%   Direction: NA
Pressure: 29.85"   Gusts: NA
Location:  30.57°N, 104.55°E
Report Text: ZUUU 282200Z 00000MPS 6000 SCT050 12/08 Q1011 NOSIG
Loading
Personal Weather Stations






























Interactive Weather Map New forecast layout! Learn more

10-Day Weather Forecast

Advertisements
Track Severe Weather on mobile